| time (UTC) | temp F | wind direction | speed MPH | gust MPH | rain 1hr in | rain 24hr in | rain mn in | humidity % | barometer mb |
| 20260506043815 | 67 | 0.0 | 0.0 | 0.00 | 0.00 | 0.00 | 90 | 1009.7 | |
| 20260506042815 | 67 | 0.0 | 0.0 | 0.00 | 0.00 | 0.00 | 90 | 1009.5 | |
| 20260506041815 | 68 | 0.0 | 0.0 | 0.00 | 0.00 | 0.00 | 90 | 1009.6 | |
| 20260506040815 | 68 | 0.0 | 0.0 | 0.00 | 0.00 | 0.00 | 90 | 1009.6 | |
| 20260506035815 | 68 | 0.0 | 0.0 | 0.00 | 0.00 | 0.00 | 90 | 1009.7 | |
| 20260506034815 | 68 | 0.0 | 0.0 | 0.00 | 0.00 | 0.00 | 89 | 1009.6 | |
| 20260506033815 | 68 | 0.0 | 0.0 | 0.00 | 0.00 | 0.00 | 90 | 1009.7 | |
| 20260506032815 | 68 | 0.0 | 0.0 | 0.00 | 0.00 | 0.00 | 89 | 1009.8 | |
| 20260506031815 | 69 | 0.0 | 0.0 | 0.00 | 0.00 | 0.00 | 89 | 1009.7 | |
| 20260506030816 | 69 | 0.0 | 0.0 | 0.00 | 0.00 | 0.00 | 89 | 1009.8 | |
| 20260506025815 | 69 | 0.0 | 0.0 | 0.00 | 0.00 | 0.00 | 89 | 1009.6 | |
| 20260506024815 | 69 | 0.0 | 0.0 | 0.00 | 0.00 | 0.00 | 88 | 1009.6 | |
| 20260506023816 | 69 | 0.0 | 0.0 | 0.00 | 0.00 | 0.00 | 88 | 1009.5 | |
| 20260506022815 | 69 | 0.0 | 0.0 | 0.00 | 0.00 | 0.00 | 88 | 1009.4 | |
| 20260506021815 | 70 | 0.0 | 0.0 | 0.00 | 0.00 | 0.00 | 88 | 1009.2 | |
| 20260506020815 | 70 | 0.0 | 0.0 | 0.00 | 0.00 | 0.00 | 88 | 1008.9 | |
| 20260506015835 | 70 | 0.0 | 0.0 | 0.00 | 0.00 | 0.00 | 88 | 1008.9 | |
| 20260506014815 | 70 | 0.0 | 0.0 | 0.00 | 0.00 | 0.00 | 87 | 1008.9 | |
| 20260506013835 | 70 | 0.0 | 0.0 | 0.00 | 0.00 | 0.00 | 87 | 1009.1 | |
| 20260506012815 | 70 | 0.0 | 0.0 | 0.00 | 0.00 | 0.00 | 87 | 1009.1 | |
| 20260506011815 | 70 | 0.0 | 0.0 | 0.00 | 0.00 | 0.00 | 86 | 1009.2 | |
| 20260506010815 | 71 | 0.0 | 0.0 | 0.00 | 0.00 | 0.00 | 86 | 1009.1 | |
| 20260506005815 | 71 | 0.0 | 0.0 | 0.00 | 0.00 | 0.00 | 85 | 1009.0 | |
| 20260506004815 | 72 | 0.0 | 0.0 | 0.00 | 0.00 | 0.00 | 85 | 1008.9 | |
| 20260506003815 | 72 | 0.0 | 0.0 | 0.00 | 0.00 | 0.00 | 84 | 1008.8 | |
| 20260506002835 | 72 | 0.0 | 2.0 | 0.00 | 0.00 | 0.00 | 84 | 1008.9 | |
| 20260506001815 | 73 | 0.0 | 0.0 | 0.00 | 0.00 | 0.00 | 83 | 1008.8 | |
| 20260506000835 | 73 | 188 | 2.0 | 6.0 | 0.00 | 0.00 | 0.00 | 83 | 1008.8 |
| 20260505235815 | 73 | 168 | 3.0 | 5.0 | 0.00 | 0.00 | 0.00 | 82 | 1008.8 |
| 20260505234815 | 74 | 188 | 4.0 | 7.0 | 0.00 | 0.00 | 0.00 | 81 | 1008.8 |
| 20260505233815 | 74 | 151 | 3.0 | 6.0 | 0.00 | 0.00 | 0.00 | 80 | 1008.8 |
| 20260505232815 | 74 | 162 | 5.0 | 7.0 | 0.00 | 0.00 | 0.00 | 80 | 1008.8 |
| 20260505231814 | 75 | 170 | 4.0 | 10.0 | 0.00 | 0.00 | 0.00 | 79 | 1008.8 |
| 20260505230815 | 75 | 171 | 4.0 | 7.0 | 0.00 | 0.00 | 0.00 | 78 | 1008.8 |
| 20260505225815 | 76 | 147 | 5.0 | 6.0 | 0.00 | 0.00 | 0.00 | 77 | 1008.6 |
| 20260505224814 | 76 | 174 | 5.0 | 11.0 | 0.00 | 0.00 | 0.00 | 76 | 1008.7 |
| 20260505223815 | 76 | 154 | 8.0 | 10.0 | 0.00 | 0.00 | 0.00 | 75 | 1008.5 |
| 20260505222815 | 77 | 152 | 9.0 | 12.0 | 0.00 | 0.00 | 0.00 | 74 | 1008.6 |
| 20260505221816 | 78 | 191 | 5.0 | 9.0 | 0.00 | 0.00 | 0.00 | 73 | 1008.7 |
| 20260505220815 | 77 | 153 | 7.0 | 11.0 | 0.00 | 0.00 | 0.00 | 74 | 1008.6 |
| 20260505215815 | 78 | 144 | 9.0 | 13.0 | 0.00 | 0.00 | 0.00 | 73 | 1008.5 |
| 20260505214814 | 77 | 172 | 7.0 | 11.0 | 0.00 | 0.00 | 0.00 | 73 | 1008.4 |
| 20260505213817 | 79 | 171 | 6.0 | 11.0 | 0.00 | 0.00 | 0.00 | 72 | 1008.5 |
| 20260505212838 | 78 | 161 | 7.0 | 11.0 | 0.00 | 0.00 | 0.00 | 72 | 1008.5 |
| 20260505211817 | 79 | 162 | 8.0 | 11.0 | 0.00 | 0.00 | 0.00 | 73 | 1008.5 |
| 20260505210816 | 79 | 152 | 6.0 | 9.0 | 0.00 | 0.00 | 0.00 | 71 | 1008.4 |
| 20260505205817 | 79 | 197 | 7.0 | 11.0 | 0.00 | 0.00 | 0.00 | 71 | 1008.5 |
| 20260505204817 | 79 | 177 | 6.0 | 10.0 | 0.00 | 0.00 | 0.00 | 71 | 1008.5 |
| 20260505203837 | 79 | 162 | 7.0 | 15.0 | 0.00 | 0.00 | 0.00 | 69 | 1008.7 |
| 20260505202817 | 80 | 149 | 9.0 | 14.0 | 0.00 | 0.00 | 0.00 | 70 | 1008.8 |
| 20260505201817 | 79 | 159 | 6.0 | 12.0 | 0.00 | 0.00 | 0.00 | 69 | 1008.8 |
| 20260505200816 | 80 | 162 | 7.0 | 13.0 | 0.00 | 0.00 | 0.00 | 70 | 1009.0 |
| 20260505195817 | 79 | 156 | 9.0 | 12.0 | 0.00 | 0.00 | 0.00 | 70 | 1009.2 |
| 20260505194816 | 80 | 171 | 6.0 | 13.0 | 0.00 | 0.00 | 0.00 | 67 | 1009.4 |
| 20260505193816 | 79 | 170 | 5.0 | 6.0 | 0.00 | 0.00 | 0.00 | 70 | 1009.5 |
| 20260505192817 | 80 | 156 | 7.0 | 13.0 | 0.00 | 0.00 | 0.00 | 68 | 1009.5 |
| 20260505191815 | 79 | 154 | 5.0 | 10.0 | 0.00 | 0.00 | 0.00 | 69 | 1009.6 |
| 20260505190817 | 80 | 157 | 6.0 | 14.0 | 0.00 | 0.00 | 0.00 | 68 | 1009.7 |
| 20260505185817 | 80 | 177 | 9.0 | 15.0 | 0.00 | 0.00 | 0.00 | 67 | 1009.8 |
| 20260505184816 | 79 | 147 | 8.0 | 12.0 | 0.00 | 0.00 | 0.00 | 68 | 1009.8 |
| 20260505183816 | 78 | 169 | 7.0 | 9.0 | 0.00 | 0.00 | 0.00 | 70 | 1009.9 |
| 20260505182816 | 80 | 149 | 9.0 | 14.0 | 0.00 | 0.00 | 0.00 | 67 | 1009.9 |
| 20260505181816 | 80 | 156 | 8.0 | 11.0 | 0.00 | 0.00 | 0.00 | 69 | 1010.0 |
| 20260505180857 | 80 | 231 | 5.0 | 8.0 | 0.00 | 0.00 | 0.00 | 70 | 1009.9 |
| 20260505175816 | 78 | 171 | 6.0 | 12.0 | 0.00 | 0.00 | 0.00 | 71 | 1010.1 |
| 20260505174816 | 79 | 154 | 7.0 | 11.0 | 0.00 | 0.00 | 0.00 | 72 | 1010.0 |
| 20260505173836 | 78 | 162 | 8.0 | 12.0 | 0.00 | 0.00 | 0.00 | 72 | 1010.0 |
| 20260505172837 | 79 | 169 | 4.0 | 8.0 | 0.00 | 0.00 | 0.00 | 67 | 1010.2 |
| 20260505171817 | 80 | 154 | 5.0 | 9.0 | 0.00 | 0.00 | 0.00 | 68 | 1010.2 |
| 20260505170816 | 79 | 157 | 7.0 | 13.0 | 0.00 | 0.00 | 0.00 | 70 | 1010.2 |
| 20260505165816 | 78 | 181 | 4.0 | 8.0 | 0.00 | 0.00 | 0.00 | 72 | 1010.2 |
| 20260505164816 | 78 | 164 | 6.0 | 10.0 | 0.00 | 0.00 | 0.00 | 70 | 1010.2 |
| 20260505163816 | 79 | 189 | 5.0 | 9.0 | 0.00 | 0.00 | 0.00 | 70 | 1010.2 |
| 20260505162816 | 78 | 169 | 6.0 | 11.0 | 0.00 | 0.00 | 0.00 | 71 | 1010.2 |
| 20260505161816 | 78 | 158 | 9.0 | 12.0 | 0.00 | 0.00 | 0.00 | 71 | 1010.2 |
| 20260505160816 | 78 | 167 | 7.0 | 9.0 | 0.00 | 0.00 | 0.00 | 71 | 1010.1 |
| 20260505152836 | 77 | 178 | 6.0 | 9.0 | 0.00 | 0.00 | 0.00 | 70 | 1010.2 |
| 20260505151817 | 77 | 171 | 4.0 | 8.0 | 0.00 | 0.00 | 0.00 | 72 | 1010.3 |
| 20260505150816 | 76 | 195 | 4.0 | 7.0 | 0.00 | 0.00 | 0.00 | 71 | 1010.2 |
| 20260505124816 | 60 | 0.0 | 0.0 | 0.00 | 0.00 | 0.00 | 93 | 1010.3 | |
| 20260505123816 | 59 | 0.0 | 0.0 | 0.00 | 0.00 | 0.00 | 93 | 1010.2 | |
| 20260505122816 | 58 | 0.0 | 0.0 | 0.00 | 0.00 | 0.00 | 93 | 1010.4 | |
| 20260505121816 | 57 | 0.0 | 0.0 | 0.00 | 0.00 | 0.00 | 93 | 1010.2 | |
| 20260505120817 | 56 | 0.0 | 0.0 | 0.00 | 0.00 | 0.00 | 93 | 1010.2 | |
| 20260505115816 | 55 | 0.0 | 0.0 | 0.00 | 0.00 | 0.00 | 93 | 1010.1 | |
| 20260505114816 | 54 | 0.0 | 0.0 | 0.00 | 0.00 | 0.00 | 93 | 1010.0 | |
| 20260505113816 | 54 | 0.0 | 0.0 | 0.00 | 0.00 | 0.00 | 93 | 1009.9 | |
| 20260505112816 | 54 | 0.0 | 0.0 | 0.00 | 0.00 | 0.00 | 93 | 1009.8 | |
| 20260505111816 | 54 | 0.0 | 0.0 | 0.00 | 0.00 | 0.00 | 93 | 1009.8 | |
| 20260505110816 | 53 | 0.0 | 0.0 | 0.00 | 0.00 | 0.00 | 93 | 1009.7 | |
| 20260505101816 | 53 | 0.0 | 0.0 | 0.00 | 0.00 | 0.00 | 93 | 1009.4 | |
| 20260505100816 | 53 | 0.0 | 0.0 | 0.00 | 0.00 | 0.00 | 93 | 1009.5 | |
| 20260505095836 | 53 | 0.0 | 0.0 | 0.00 | 0.00 | 0.00 | 93 | 1009.5 | |
| 20260505094836 | 53 | 0.0 | 0.0 | 0.00 | 0.00 | 0.00 | 92 | 1009.5 | |
| 20260505093836 | 53 | 0.0 | 0.0 | 0.00 | 0.00 | 0.00 | 93 | 1009.4 | |
| 20260505092816 | 53 | 0.0 | 0.0 | 0.00 | 0.00 | 0.00 | 92 | 1009.4 | |
| 20260505091816 | 53 | 0.0 | 0.0 | 0.00 | 0.00 | 0.00 | 92 | 1009.3 | |
| 20260505090816 | 53 | 0.0 | 0.0 | 0.00 | 0.00 | 0.00 | 92 | 1009.5 | |
| 20260505085816 | 53 | 0.0 | 0.0 | 0.00 | 0.00 | 0.00 | 92 | 1009.4 | |
| 20260505084816 | 53 | 0.0 | 0.0 | 0.00 | 0.00 | 0.00 | 92 | 1009.5 | |
| 20260505083816 | 53 | 0.0 | 0.0 | 0.00 | 0.00 | 0.00 | 92 | 1009.6 | |
| 20260505082816 | 53 | 0.0 | 0.0 | 0.00 | 0.00 | 0.00 | 92 | 1009.7 | |
| 20260505081816 | 53 | 0.0 | 0.0 | 0.00 | 0.00 | 0.00 | 92 | 1009.6 | |
| 20260505080817 | 54 | 0.0 | 0.0 | 0.00 | 0.00 | 0.00 | 92 | 1009.5 | |
| 20260505075816 | 53 | 0.0 | 0.0 | 0.00 | 0.00 | 0.00 | 92 | 1009.6 | |
| 20260505074816 | 54 | 0.0 | 0.0 | 0.00 | 0.00 | 0.00 | 92 | 1009.7 | |
| 20260505073816 | 54 | 0.0 | 0.0 | 0.00 | 0.00 | 0.00 | 92 | 1009.8 | |
| 20260505072816 | 54 | 0.0 | 0.0 | 0.00 | 0.00 | 0.00 | 92 | 1009.8 | |
| 20260505071837 | 54 | 0.0 | 0.0 | 0.00 | 0.00 | 0.00 | 92 | 1009.8 | |
| 20260505070816 | 54 | 0.0 | 0.0 | 0.00 | 0.00 | 0.00 | 92 | 1009.7 | |
| 20260505065836 | 54 | 0.0 | 0.0 | 0.00 | 0.00 | 0.00 | 92 | 1009.8 | |
| 20260505064836 | 54 | 0.0 | 0.0 | 0.00 | 0.00 | 0.00 | 92 | 1009.9 | |
| 20260505063816 | 54 | 0.0 | 0.0 | 0.00 | 0.00 | 0.00 | 91 | 1010.1 | |
| 20260505062816 | 54 | 0.0 | 0.0 | 0.00 | 0.00 | 0.00 | 91 | 1010.2 | |
| 20260505061816 | 55 | 0.0 | 0.0 | 0.00 | 0.00 | 0.00 | 91 | 1010.2 | |
| 20260505060816 | 55 | 0.0 | 0.0 | 0.00 | 0.00 | 0.00 | 91 | 1010.4 | |
| 20260505055816 | 55 | 0.0 | 0.0 | 0.00 | 0.00 | 0.00 | 91 | 1010.5 | |
| 20260505054816 | 55 | 0.0 | 0.0 | 0.00 | 0.00 | 0.00 | 91 | 1010.5 | |
| 20260505053816 | 55 | 0.0 | 0.0 | 0.00 | 0.00 | 0.00 | 91 | 1010.6 | |
| 20260505052816 | 55 | 0.0 | 0.0 | 0.00 | 0.00 | 0.00 | 91 | 1010.6 | |
| 20260505051836 | 55 | 0.0 | 0.0 | 0.00 | 0.00 | 0.00 | 91 | 1010.8 | |
| 20260505050816 | 55 | 0.0 | 0.0 | 0.00 | 0.00 | 0.00 | 90 | 1010.9 |